Time;durP1;ratioP1;P1;durP2;ratioP2;P2;SDS_P1;SDS_P2;PMS_P1;PMS_P2;Temp;Humidity;BMP_temperature;BMP_pressure;BME280_temperature;BME280_humidity;BME280_pressure;Samples;Min_cycle;Max_cycle;Signal;HPM_P1;HPM_P2
2022/04/19 00:00:42;;;;;;;13.55;7.57;;;;;;;;;;6149019;23;20028;-86
2022/04/19 00:03:09;;;;;;;13.20;7.80;;;;;;;;;;6146894;23;20044;-86
2022/04/19 00:05:36;;;;;;;12.65;7.25;;;;;;;;;;6149434;23;20009;-86
2022/04/19 00:08:03;;;;;;;12.40;7.80;;;;;;;;;;6145837;23;20683;-85
2022/04/19 00:10:29;;;;;;;13.63;8.13;;;;;;;;;;6149333;23;20021;-85
2022/04/19 00:12:56;;;;;;;14.02;7.95;;;;;;;;;;6148615;23;20016;-84
2022/04/19 00:15:22;;;;;;;13.25;8.10;;;;;;;;;;6153003;23;20017;-84
2022/04/19 00:17:51;;;;;;;13.25;8.43;;;;;;;;;;6148459;23;20021;-85
2022/04/19 00:20:17;;;;;;;12.98;7.57;;;;;;;;;;6149489;23;20009;-85
2022/04/19 00:22:44;;;;;;;13.82;8.38;;;;;;;;;;6148642;23;20036;-86
2022/04/19 00:25:10;;;;;;;13.18;8.00;;;;;;;;;;6148501;23;20013;-85
2022/04/19 00:27:36;;;;;;;14.63;7.97;;;;;;;;;;6149378;23;20063;-86
2022/04/19 00:30:03;;;;;;;12.13;7.90;;;;;;;;;;6147432;23;20016;-86
2022/04/19 00:32:29;;;;;;;13.35;8.68;;;;;;;;;;6149140;23;20462;-85
2022/04/19 00:34:57;;;;;;;12.70;8.40;;;;;;;;;;6148338;23;20048;-86
2022/04/19 00:37:23;;;;;;;12.55;7.93;;;;;;;;;;6146337;23;20021;-86
2022/04/19 00:39:49;;;;;;;14.43;8.75;;;;;;;;;;6145221;23;20216;-86
2022/04/19 00:42:17;;;;;;;13.23;8.85;;;;;;;;;;6144239;23;20100;-86
2022/04/19 00:44:43;;;;;;;12.15;8.73;;;;;;;;;;6145193;23;20509;-86
2022/04/19 00:47:10;;;;;;;13.20;8.30;;;;;;;;;;6146642;23;20120;-86
2022/04/19 00:49:38;;;;;;;13.90;8.85;;;;;;;;;;6149796;23;20021;-86
2022/04/19 00:52:05;;;;;;;12.52;8.98;;;;;;;;;;6147019;23;20043;-86
2022/04/19 00:54:31;;;;;;;14.43;8.68;;;;;;;;;;6146159;23;20108;-87
2022/04/19 00:56:58;;;;;;;12.30;8.60;;;;;;;;;;6172202;23;20473;-86
2022/04/19 00:59:24;;;;;;;13.52;8.75;;;;;;;;;;6147791;23;20103;-86
2022/04/19 01:01:51;;;;;;;14.13;8.82;;;;;;;;;;6146031;23;20067;-86
2022/04/19 01:04:17;;;;;;;13.15;8.82;;;;;;;;;;6148335;23;20009;-86
2022/04/19 01:06:44;;;;;;;17.02;9.55;;;;;;;;;;6171594;23;20021;-86
2022/04/19 01:09:10;;;;;;;16.15;9.02;;;;;;;;;;6145655;23;20017;-86
2022/04/19 01:14:21;;;;;;;15.50;9.48;;;;;;;;;;6150957;23;20025;-87
2022/04/19 01:16:47;;;;;;;13.27;8.88;;;;;;;;;;6147267;23;20092;-86
2022/04/19 01:19:17;;;;;;;14.90;9.95;;;;;;;;;;6148996;23;20127;-87
2022/04/19 01:21:54;;;;;;;15.43;9.43;;;;;;;;;;6146022;23;20009;-87
2022/04/19 01:24:21;;;;;;;15.63;9.32;;;;;;;;;;6149402;23;20017;-86
2022/04/19 01:26:48;;;;;;;14.20;8.95;;;;;;;;;;6147215;23;20079;-87
2022/04/19 01:29:15;;;;;;;20.70;9.48;;;;;;;;;;6171507;23;20645;-87
2022/04/19 01:31:42;;;;;;;16.30;8.85;;;;;;;;;;6145746;23;20405;-86
2022/04/19 01:34:09;;;;;;;13.82;8.95;;;;;;;;;;6148554;23;20012;-86
2022/04/19 01:36:38;;;;;;;12.65;8.75;;;;;;;;;;6147154;23;20021;-86
2022/04/19 01:39:05;;;;;;;14.23;7.55;;;;;;;;;;6144750;23;20024;-86
2022/04/19 01:41:31;;;;;;;12.73;8.50;;;;;;;;;;6147576;23;20469;-87
2022/04/19 01:43:58;;;;;;;14.32;7.90;;;;;;;;;;6144854;23;20016;-87
2022/04/19 01:46:25;;;;;;;11.93;8.40;;;;;;;;;;6143965;23;20442;-86
2022/04/19 01:48:51;;;;;;;12.20;7.40;;;;;;;;;;6151666;23;20013;-86
2022/04/19 01:51:17;;;;;;;14.00;8.35;;;;;;;;;;6151891;23;20021;-87
2022/04/19 01:53:44;;;;;;;12.63;6.82;;;;;;;;;;6149615;23;20017;-86
2022/04/19 01:56:10;;;;;;;14.10;7.35;;;;;;;;;;6148141;23;20009;-85
2022/04/19 01:58:37;;;;;;;12.30;7.28;;;;;;;;;;6150940;23;20053;-86
2022/04/19 02:01:03;;;;;;;12.02;7.35;;;;;;;;;;6149381;23;20268;-85
2022/04/19 02:03:29;;;;;;;12.63;7.50;;;;;;;;;;6149523;23;20096;-86
2022/04/19 02:05:55;;;;;;;11.25;7.18;;;;;;;;;;6148707;23;20020;-86
2022/04/19 02:08:21;;;;;;;12.80;8.32;;;;;;;;;;6146247;23;20350;-87
2022/04/19 02:10:48;;;;;;;12.07;7.72;;;;;;;;;;6146803;23;20397;-87
2022/04/19 02:13:14;;;;;;;11.63;7.85;;;;;;;;;;6149548;23;20021;-86
2022/04/19 02:15:40;;;;;;;13.63;7.72;;;;;;;;;;6143909;23;20481;-86
2022/04/19 02:18:06;;;;;;;12.77;7.93;;;;;;;;;;6142456;23;20024;-86
2022/04/19 02:20:33;;;;;;;12.25;8.20;;;;;;;;;;6145623;23;20374;-87
2022/04/19 02:22:59;;;;;;;11.45;8.57;;;;;;;;;;6152397;23;20473;-86
2022/04/19 02:25:26;;;;;;;14.18;8.38;;;;;;;;;;6147121;23;20013;-86
2022/04/19 02:27:52;;;;;;;11.77;7.97;;;;;;;;;;6143555;23;20100;-86
2022/04/19 02:30:21;;;;;;;16.00;9.18;;;;;;;;;;6149272;23;20100;-86
2022/04/19 02:32:48;;;;;;;16.80;9.32;;;;;;;;;;6146537;23;20056;-86
2022/04/19 02:35:18;;;;;;;14.18;9.18;;;;;;;;;;6150337;23;20408;-84
2022/04/19 02:37:54;;;;;;;15.20;9.38;;;;;;;;;;6144870;23;20048;-86
2022/04/19 02:40:20;;;;;;;15.70;9.35;;;;;;;;;;6147765;23;20013;-86
2022/04/19 02:42:47;;;;;;;15.40;9.57;;;;;;;;;;6148793;23;20048;-86
2022/04/19 02:45:13;;;;;;;16.10;9.93;;;;;;;;;;6148561;23;20012;-87
2022/04/19 02:47:41;;;;;;;14.45;9.05;;;;;;;;;;6143100;23;20468;-86
2022/04/19 02:50:07;;;;;;;15.98;10.25;;;;;;;;;;6147568;23;20495;-87
2022/04/19 02:52:33;;;;;;;14.40;9.77;;;;;;;;;;6151445;23;20684;-87
2022/04/19 02:55:00;;;;;;;15.38;9.50;;;;;;;;;;6150378;23;20013;-87
2022/04/19 02:57:26;;;;;;;14.75;9.75;;;;;;;;;;6147860;23;20056;-87
2022/04/19 02:59:53;;;;;;;15.70;10.05;;;;;;;;;;6146591;23;20087;-87
2022/04/19 03:02:19;;;;;;;22.25;10.52;;;;;;;;;;6146838;23;20013;-87
2022/04/19 03:04:46;;;;;;;13.38;9.07;;;;;;;;;;6149420;23;20009;-87
2022/04/19 03:07:15;;;;;;;16.80;10.02;;;;;;;;;;6145786;23;20032;-86
2022/04/19 03:09:41;;;;;;;19.38;9.05;;;;;;;;;;6150383;23;20017;-87
2022/04/19 03:12:10;;;;;;;13.40;9.48;;;;;;;;;;6146588;23;20478;-87
2022/04/19 03:14:37;;;;;;;19.13;9.82;;;;;;;;;;6147776;23;20039;-86
2022/04/19 03:17:04;;;;;;;12.50;9.23;;;;;;;;;;6146866;23;20025;-86
2022/04/19 03:19:30;;;;;;;17.10;10.07;;;;;;;;;;6143624;23;20017;-87
2022/04/19 03:21:56;;;;;;;14.65;9.95;;;;;;;;;;6150324;23;20009;-87
2022/04/19 03:29:52;;;;;;;17.45;11.30;;;;;;;;;;6154220;23;20020;-86
2022/04/19 03:32:19;;;;;;;17.80;10.98;;;;;;;;;;6151017;23;20092;-85
2022/04/19 03:34:46;;;;;;;16.35;10.23;;;;;;;;;;6150207;23;20100;-85
2022/04/19 03:37:15;;;;;;;16.92;9.57;;;;;;;;;;6147891;23;20071;-86
2022/04/19 03:39:41;;;;;;;15.30;10.30;;;;;;;;;;6145004;23;20012;-85
2022/04/19 03:42:08;;;;;;;17.90;10.27;;;;;;;;;;6149613;23;20014;-87
2022/04/19 03:44:35;;;;;;;15.65;10.65;;;;;;;;;;6152929;23;20013;-86
2022/04/19 03:47:07;;;;;;;17.23;10.23;;;;;;;;;;6150137;23;20048;-87
2022/04/19 03:49:34;;;;;;;18.02;10.05;;;;;;;;;;6147793;23;20764;-86
2022/04/19 03:52:00;;;;;;;15.93;9.90;;;;;;;;;;6148588;23;20048;-86
2022/04/19 03:54:26;;;;;;;16.90;10.23;;;;;;;;;;6150040;23;20512;-86
2022/04/19 03:56:53;;;;;;;18.25;11.07;;;;;;;;;;6150448;23;20063;-86
2022/04/19 03:59:19;;;;;;;17.10;10.05;;;;;;;;;;6149874;23;20013;-85
2022/04/19 04:01:45;;;;;;;15.75;10.95;;;;;;;;;;6149821;23;20016;-87
2022/04/19 04:04:11;;;;;;;15.35;10.27;;;;;;;;;;6149077;23;20101;-85
2022/04/19 04:06:38;;;;;;;19.42;12.20;;;;;;;;;;6149185;23;20009;-87
2022/04/19 04:09:04;;;;;;;17.05;10.80;;;;;;;;;;6149097;23;20473;-86
2022/04/19 04:11:32;;;;;;;17.50;11.43;;;;;;;;;;6146297;23;20411;-85
2022/04/19 04:13:58;;;;;;;18.88;11.85;;;;;;;;;;6148166;23;20096;-86
2022/04/19 04:16:24;;;;;;;18.65;11.27;;;;;;;;;;6148674;23;20532;-86
2022/04/19 04:18:50;;;;;;;20.27;12.07;;;;;;;;;;6151148;23;20685;-86
2022/04/19 04:21:17;;;;;;;20.42;12.00;;;;;;;;;;6144561;23;20465;-87
2022/04/19 04:23:43;;;;;;;18.70;11.80;;;;;;;;;;6147908;23;20045;-86
2022/04/19 04:26:09;;;;;;;15.82;11.32;;;;;;;;;;6147613;23;20112;-87
2022/04/19 04:28:35;;;;;;;19.95;12.55;;;;;;;;;;6145684;23;20044;-86
2022/04/19 04:31:01;;;;;;;19.98;12.20;;;;;;;;;;6148160;23;20019;-86
2022/04/19 04:33:27;;;;;;;24.33;11.45;;;;;;;;;;6142504;23;20120;-85
2022/04/19 04:35:53;;;;;;;19.60;11.90;;;;;;;;;;6142070;23;20933;-87
2022/04/19 04:38:20;;;;;;;19.02;11.95;;;;;;;;;;6143807;23;20017;-86
2022/04/19 04:40:46;;;;;;;18.98;11.35;;;;;;;;;;6144582;23;20013;-87
2022/04/19 04:43:12;;;;;;;17.70;11.38;;;;;;;;;;6141248;23;20096;-85
2022/04/19 04:45:38;;;;;;;19.63;12.55;;;;;;;;;;6143936;23;20017;-86
2022/04/19 04:50:52;;;;;;;20.05;11.95;;;;;;;;;;6159472;23;20409;-86
2022/04/19 04:53:18;;;;;;;20.30;11.90;;;;;;;;;;6159705;23;20017;-86
2022/04/19 04:55:45;;;;;;;22.42;12.57;;;;;;;;;;6141617;23;20561;-86
2022/04/19 04:58:11;;;;;;;19.85;12.38;;;;;;;;;;6138438;23;20358;-86
2022/04/19 05:00:37;;;;;;;19.05;12.15;;;;;;;;;;6139329;23;20021;-86
2022/04/19 05:03:06;;;;;;;24.35;13.68;;;;;;;;;;6137924;23;20212;-86
2022/04/19 05:05:32;;;;;;;22.25;11.98;;;;;;;;;;6134484;23;20016;-86
2022/04/19 05:07:58;;;;;;;18.55;12.20;;;;;;;;;;6133850;23;20013;-86
2022/04/19 05:10:24;;;;;;;23.95;13.30;;;;;;;;;;6131574;23;20084;-86
2022/04/19 05:12:50;;;;;;;18.35;12.73;;;;;;;;;;6134704;23;20047;-86
2022/04/19 05:15:16;;;;;;;20.30;12.60;;;;;;;;;;6131476;23;20020;-85
2022/04/19 05:17:42;;;;;;;18.55;12.60;;;;;;;;;;6133645;23;20541;-86
2022/04/19 05:20:12;;;;;;;21.95;12.48;;;;;;;;;;6135412;23;20409;-88
2022/04/19 05:22:41;;;;;;;21.80;12.35;;;;;;;;;;6145119;23;20023;-88
2022/04/19 05:25:10;;;;;;;20.90;12.90;;;;;;;;;;6145097;23;20017;-87
2022/04/19 05:27:37;;;;;;;20.80;11.82;;;;;;;;;;6144724;23;20100;-87
2022/04/19 05:30:06;;;;;;;17.67;12.70;;;;;;;;;;6142472;23;20063;-87
2022/04/19 05:32:35;;;;;;;21.77;13.20;;;;;;;;;;6140364;23;20217;-87
2022/04/19 05:35:01;;;;;;;21.95;12.95;;;;;;;;;;6143435;23;20028;-88
2022/04/19 05:37:30;;;;;;;20.20;12.13;;;;;;;;;;6141991;23;20084;-88
2022/04/19 05:39:57;;;;;;;17.85;11.63;;;;;;;;;;6139170;23;20009;-87
2022/04/19 05:42:32;;;;;;;19.92;11.90;;;;;;;;;;6143549;23;20106;-87
2022/04/19 05:44:58;;;;;;;16.98;11.60;;;;;;;;;;6141428;23;20024;-87
2022/04/19 05:47:28;;;;;;;17.13;11.70;;;;;;;;;;6146144;23;20024;-88
2022/04/19 05:49:54;;;;;;;19.55;12.25;;;;;;;;;;6144905;23;20462;-89
2022/04/19 05:52:23;;;;;;;19.67;12.50;;;;;;;;;;6148787;23;20044;-88
2022/04/19 05:55:12;;;;;;;17.83;12.02;;;;;;;;;;6149871;23;20486;-87
2022/04/19 05:57:47;;;;;;;17.92;11.77;;;;;;;;;;6152091;23;20017;-88
2022/04/19 06:00:30;;;;;;;19.73;11.82;;;;;;;;;;6145903;23;20418;-87
2022/04/19 06:05:44;;;;;;;20.02;12.77;;;;;;;;;;6170494;23;20024;-88
2022/04/19 06:08:18;;;;;;;18.10;11.65;;;;;;;;;;6141601;23;20028;-88
2022/04/19 06:10:49;;;;;;;19.42;12.50;;;;;;;;;;6149072;23;20346;-87
2022/04/19 06:13:33;;;;;;;19.27;12.13;;;;;;;;;;6151764;23;20052;-88
2022/04/19 06:16:13;;;;;;;20.52;12.75;;;;;;;;;;6148108;23;20055;-88
2022/04/19 06:18:39;;;;;;;17.98;12.35;;;;;;;;;;6147984;23;20025;-88
2022/04/19 06:21:06;;;;;;;18.05;11.77;;;;;;;;;;6145287;23;20108;-87
2022/04/19 06:23:32;;;;;;;21.67;11.93;;;;;;;;;;6142363;23;20091;-89
2022/04/19 06:25:59;;;;;;;22.50;11.95;;;;;;;;;;6150625;23;20013;-87
2022/04/19 06:28:25;;;;;;;18.05;11.88;;;;;;;;;;6151217;23;20055;-87
2022/04/19 06:30:51;;;;;;;19.05;11.05;;;;;;;;;;6151813;23;20024;-88
2022/04/19 06:33:18;;;;;;;18.83;11.68;;;;;;;;;;6149990;23;20019;-88
2022/04/19 06:35:44;;;;;;;18.95;11.23;;;;;;;;;;6151561;23;20021;-87
2022/04/19 06:38:10;;;;;;;20.90;12.43;;;;;;;;;;6154300;23;20024;-86
2022/04/19 06:40:37;;;;;;;21.45;11.60;;;;;;;;;;6154008;23;20013;-87
2022/04/19 06:43:06;;;;;;;19.52;12.32;;;;;;;;;;6151442;23;20009;-87
2022/04/19 06:45:35;;;;;;;18.27;11.25;;;;;;;;;;6151323;23;20442;-88
2022/04/19 06:48:02;;;;;;;20.23;10.77;;;;;;;;;;6152405;23;20100;-87
2022/04/19 06:50:31;;;;;;;15.98;10.55;;;;;;;;;;6152982;23;20013;-87
2022/04/19 06:52:57;;;;;;;18.95;10.30;;;;;;;;;;6152400;23;20017;-88
2022/04/19 06:55:26;;;;;;;16.90;10.60;;;;;;;;;;6152158;23;20096;-89
2022/04/19 06:57:53;;;;;;;16.23;10.35;;;;;;;;;;6153623;23;20031;-86
2022/04/19 07:00:22;;;;;;;18.92;10.48;;;12.20;55.10;;;;;;6152104;23;20019;-88
2022/04/19 07:02:48;;;;;;;18.00;11.13;;;9.20;99.90;;;;;;6177847;23;20564;-88
2022/04/19 07:05:15;;;;;;;23.92;10.75;;;;;;;;;;6174982;23;20020;-88
2022/04/19 07:07:42;;;;;;;16.67;10.43;;;;;;;;;;6148847;23;20020;-88
2022/04/19 07:10:10;;;;;;;19.08;11.00;;;;;;;;;;6151797;23;20021;-87
2022/04/19 07:12:37;;;;;;;17.98;10.65;;;;;;;;;;6155619;23;20048;-88
2022/04/19 07:28:03;;;;;;;17.08;10.10;;;;;;;;;;6149655;23;20101;-87
2022/04/19 07:30:29;;;;;;;17.25;9.27;;;;;;;;;;6120848;23;20017;-88
2022/04/19 07:32:56;;;;;;;15.82;8.68;;;10.30;99.90;;;;;;6100423;23;20009;-89
2022/04/19 07:35:22;;;;;;;17.00;8.75;;;10.90;99.90;;;;;;6100202;23;20156;-88
2022/04/19 07:37:48;;;;;;;15.07;9.15;;;11.00;99.90;;;;;;6100076;23;20048;-89
2022/04/19 07:40:14;;;;;;;14.15;9.20;;;11.10;99.90;;;;;;6101029;23;20068;-91
2022/04/19 07:42:40;;;;;;;17.73;9.23;;;11.20;99.90;;;;;;6074610;23;20909;-87
2022/04/19 07:45:06;;;;;;;12.32;8.77;;;11.30;99.90;;;;;;6051904;23;20088;-88
2022/04/19 07:47:36;;;;;;;17.40;10.05;;;;;;;;;;6055772;23;20014;-87
2022/04/19 07:50:05;;;;;;;16.33;9.45;;;;;;;;;;6100485;23;20017;-88
2022/04/19 07:52:31;;;;;;;15.48;9.40;;;11.50;99.90;;;;;;6100383;23;20048;-88
2022/04/19 07:55:00;;;;;;;15.95;9.35;;;11.80;99.90;;;;;;6101243;23;20028;-87
2022/04/19 07:57:29;;;;;;;20.30;9.65;;;;;;;;;;6077009;23;20029;-89
2022/04/19 07:59:55;;;;;;;14.43;8.55;;;;;;;;;;6100837;23;20092;-86
2022/04/19 08:02:21;;;;;;;17.73;8.25;;;;;;;;;;6099427;23;20010;-86
2022/04/19 08:04:48;;;;;;;12.30;8.70;;;;;;;;;;6099962;23;20045;-85
2022/04/19 08:07:14;;;;;;;13.10;8.95;;;;;;;;;;6099623;23;20017;-86
2022/04/19 08:09:40;;;;;;;13.93;8.43;;;;;;;;;;6101159;23;20342;-86
2022/04/19 08:12:08;;;;;;;16.92;8.43;;;;;;;;;;6098444;23;20530;-85
2022/04/19 08:14:34;;;;;;;12.73;7.45;;;;;;;;;;6100577;23;20017;-87
2022/04/19 08:17:00;;;;;;;10.98;6.80;;;;;;;;;;6099692;23;20100;-86
2022/04/19 08:19:27;;;;;;;9.27;7.00;;;;;;;;;;6102183;23;20089;-86
2022/04/19 08:21:54;;;;;;;8.23;6.18;;;;;;;;;;6099306;23;20017;-85
2022/04/19 08:24:20;;;;;;;9.30;5.75;;;;;;;;;;6098802;23;20072;-88
2022/04/19 08:26:47;;;;;;;14.70;6.43;;;;;;;;;;6100078;23;20013;-88
2022/04/19 08:29:13;;;;;;;12.05;6.05;;;;;;;;;;6099982;23;20014;-87
2022/04/19 08:31:39;;;;;;;15.13;5.80;;;;;;;;;;6099821;23;20017;-86
2022/04/19 08:34:08;;;;;;;12.93;5.53;;;;;;;;;;6100118;23;20041;-87
2022/04/19 08:36:35;;;;;;;7.18;4.95;;;;;;;;;;6100982;23;20083;-88
2022/04/19 08:39:01;;;;;;;13.13;6.05;;;;;;;;;;6101340;23;20044;-87
2022/04/19 08:41:28;;;;;;;8.57;5.55;;;;;;;;;;6100090;23;20053;-86
2022/04/19 08:43:54;;;;;;;8.00;4.60;;;;;;;;;;6099501;23;20060;-88
2022/04/19 08:46:20;;;;;;;6.90;4.30;;;;;;;;;;6100078;23;20009;-88
2022/04/19 08:48:49;;;;;;;11.73;4.68;;;;;;;;;;6101421;23;20021;-87
2022/04/19 08:51:19;;;;;;;13.05;4.10;;;;;;;;;;6101111;23;20092;-88
2022/04/19 08:59:16;;;;;;;6.15;3.92;;;;;;;;;;6125575;23;20057;-86
2022/04/19 09:01:42;;;;;;;7.13;3.63;;;;;;;;;;6101765;23;20025;-90
2022/04/19 09:04:08;;;;;;;7.00;3.50;;;;;;;;;;6100873;23;20524;-89
2022/04/19 09:06:53;;;;;;;5.65;3.25;;;;;;;;;;6104654;23;20017;-88
2022/04/19 09:09:24;;;;;;;11.93;3.08;;;;;;;;;;6103784;23;20040;-87
2022/04/19 09:12:22;;;;;;;5.38;3.20;;;;;;;;;;6101675;23;20133;-86
2022/04/19 09:14:55;;;;;;;9.07;2.40;;;;;;;;;;6055466;23;20346;-88
2022/04/19 09:17:30;;;;;;;3.53;2.50;;;;;;;;;;6101705;23;20350;-87
2022/04/19 09:20:11;;;;;;;3.90;2.38;;;11.90;99.90;;;;;;6103022;23;20024;-88
2022/04/19 09:22:37;;;;;;;4.25;2.10;;;14.70;59.80;;;;;;6101896;23;20084;-90
2022/04/19 09:25:17;;;;;;;9.32;2.80;;;14.60;60.50;;;;;;6103424;23;20541;-89
2022/04/19 09:27:44;;;;;;;5.05;2.50;;;14.60;58.70;;;;;;6104787;23;20022;-86
2022/04/19 09:30:34;;;;;;;4.05;2.22;;;14.60;57.00;;;;;;6101619;23;20064;-86
2022/04/19 09:33:01;;;;;;;6.10;2.42;;;14.60;57.70;;;;;;6100926;23;20092;-87
2022/04/19 09:35:34;;;;;;;5.05;2.97;;;14.70;57.80;;;;;;6102021;23;20056;-87
2022/04/19 09:38:00;;;;;;;8.88;2.50;;;14.80;58.60;;;;;;6101583;23;20052;-87
2022/04/19 09:40:47;;;;;;;11.27;2.72;;;14.80;57.10;;;;;;6101230;23;20010;-87
2022/04/19 09:43:24;;;;;;;5.32;2.30;;;14.80;57.30;;;;;;6100559;23;20016;-87
2022/04/19 09:46:03;;;;;;;6.28;2.40;;;15.00;57.90;;;;;;6078726;23;20061;-88
2022/04/19 09:48:32;;;;;;;7.20;2.70;;;;;;;;;;6102682;23;20049;-90
2022/04/19 09:51:02;;;;;;;3.95;2.83;;;;;;;;;;6102701;23;20018;-87
2022/04/19 09:53:30;;;;;;;4.78;2.70;;;;;;;;;;6102136;23;20022;-87
2022/04/19 09:55:58;;;;;;;5.20;2.70;;;;;;;;;;6104179;23;20024;-88
2022/04/19 09:58:24;;;;;;;5.55;2.80;;;;;;;;;;6102178;23;20454;-87
2022/04/19 10:00:57;;;;;;;5.70;2.83;;;;;;;;;;6104066;23;20009;-86
2022/04/19 10:08:39;;;;;;;5.07;2.40;;;;;;;;;;6126511;23;20100;-88
2022/04/19 10:11:05;;;;;;;6.32;2.80;;;;;;;;;;6102104;23;20013;-87
2022/04/19 10:13:33;;;;;;;5.43;2.00;;;;;;;;;;6101592;23;20018;-87
2022/04/19 10:16:04;;;;;;;3.20;2.38;;;;;;;;;;6101424;23;20032;-87
2022/04/19 10:18:30;;;;;;;5.45;3.15;;;;;;;;;;6101821;23;20024;-86
2022/04/19 10:21:00;;;;;;;5.93;2.80;;;;;;;;;;6101359;23;20454;-90
2022/04/19 10:23:37;;;;;;;6.50;2.58;;;;;;;;;;6098999;23;20009;-88
2022/04/19 10:26:29;;;;;;;7.38;2.67;;;15.10;57.60;;;;;;6103626;23;20014;-87
2022/04/19 10:28:58;;;;;;;4.03;2.75;;;;;;;;;;6101210;23;20018;-87
2022/04/19 10:31:27;;;;;;;4.78;2.58;;;15.90;54.90;;;;;;6100961;23;20020;-87
2022/04/19 10:33:53;;;;;;;3.78;2.65;;;16.00;55.60;;;;;;6102232;23;20470;-89
2022/04/19 10:36:42;;;;;;;4.97;2.30;;;16.00;54.60;;;;;;6079943;23;20291;-87
2022/04/19 10:39:17;;;;;;;4.65;2.42;;;16.10;55.20;;;;;;6122466;23;20100;-88
2022/04/19 10:41:58;;;;;;;4.20;2.53;;;16.20;55.10;;;;;;6101896;23;20485;-88
2022/04/19 10:44:45;;;;;;;4.03;1.90;;;16.20;55.50;;;;;;6076490;23;20018;-86
2022/04/19 10:47:16;;;;;;;5.00;2.15;;;16.40;55.20;;;;;;6099746;23;20423;-88
2022/04/19 10:50:06;;;;;;;2.80;2.50;;;16.40;54.20;;;;;;6076306;23;20064;-86
2022/04/19 10:55:25;;;;;;;4.65;2.75;;;;;;;;;;6123861;23;20470;-86
2022/04/19 11:00:52;;;;;;;4.05;2.88;;;;;;;;;;6125067;23;20026;-88
2022/04/19 11:03:39;;;;;;;5.43;2.60;;;;;;;;;;6099726;23;20033;-88
2022/04/19 11:06:11;;;;;;;3.80;2.80;;;;;;;;;;6103076;23;20013;-89
2022/04/19 11:08:37;;;;;;;4.43;2.70;;;16.40;54.80;;;;;;6100067;23;20502;-89
2022/04/19 11:11:20;;;;;;;6.05;2.63;;;16.70;55.60;;;;;;6100219;23;20477;-87
2022/04/19 11:14:18;;;;;;;3.38;1.90;;;16.70;54.30;;;;;;6100032;23;20394;-88
2022/04/19 11:16:52;;;;;;;3.97;2.40;;;16.90;53.30;;;;;;6099610;23;20020;-88
2022/04/19 11:19:29;;;;;;;6.75;2.30;;;16.90;53.80;;;;;;6099750;23;20020;-90
2022/04/19 11:22:00;;;;;;;5.72;2.33;;;17.10;54.00;;;;;;6078322;23;20014;-88
2022/04/19 11:25:04;;;;;;;4.63;2.20;;;17.10;52.20;;;;;;6077099;23;20013;-86
2022/04/19 11:27:52;;;;;;;5.30;2.65;;;17.10;49.50;;;;;;6090699;23;20021;-87
2022/04/19 11:30:18;;;;;;;3.67;2.38;;;17.10;51.90;;;;;;6125389;23;20021;-88
2022/04/19 11:33:04;;;;;;;5.25;2.88;;;17.20;52.50;;;;;;6149924;23;20021;-89
2022/04/19 11:35:36;;;;;;;3.97;2.17;;;17.30;52.00;;;;;;6148486;23;20053;-89
2022/04/19 11:38:15;;;;;;;5.65;2.88;;;17.40;51.80;;;;;;6148082;23;20017;-87
2022/04/19 11:49:09;;;;;;;5.72;2.70;;;17.70;51.20;;;;;;6126675;23;20547;-88
2022/04/19 11:51:44;;;;;;;5.88;2.95;;;17.70;51.60;;;;;;6075264;23;20455;-89
2022/04/19 11:54:22;;;;;;;5.40;3.05;;;17.80;52.10;;;;;;6147403;23;20024;-90
2022/04/19 11:57:13;;;;;;;5.43;3.05;;;17.90;50.00;;;;;;6148292;23;20017;-89
2022/04/19 11:59:58;;;;;;;7.75;3.60;;;17.80;51.50;;;;;;6139591;23;20021;-89
2022/04/19 12:02:24;;;;;;;5.22;3.33;;;17.80;51.70;;;;;;6124472;23;20045;-87
2022/04/19 12:04:53;;;;;;;4.65;3.38;;;17.80;51.20;;;;;;6148543;23;20463;-87
2022/04/19 12:07:25;;;;;;;4.90;3.30;;;17.90;51.10;;;;;;6123908;23;20017;-88
2022/04/19 12:10:11;;;;;;;6.30;3.53;;;17.90;51.30;;;;;;6145595;23;20029;-87
2022/04/19 12:17:05;;;;;;;4.60;2.97;;;18.30;50.40;;;;;;6173542;23;20012;-88
2022/04/19 12:19:34;;;;;;;4.00;2.65;;;18.30;49.10;;;;;;6127249;23;20044;-88
2022/04/19 12:22:00;;;;;;;6.35;2.70;;;18.20;47.90;;;;;;6152878;23;20013;-90
2022/04/19 12:24:31;;;;;;;4.20;2.70;;;18.10;48.00;;;;;;6128600;23;20009;-89
2022/04/19 12:27:07;;;;;;;8.48;3.00;;;18.20;48.90;;;;;;6147684;23;20471;-89
2022/04/19 12:29:53;;;;;;;3.83;2.20;;;18.40;48.30;;;;;;6123278;23;20013;-87
2022/04/19 12:32:22;;;;;;;4.25;2.50;;;18.40;48.50;;;;;;6098230;23;20017;-87
2022/04/19 12:34:47;;;;;;;4.93;2.00;;;18.50;48.40;;;;;;6074163;23;20167;-87
2022/04/19 12:37:18;;;;;;;3.15;2.45;;;18.50;48.40;;;;;;6074821;23;20049;-88
2022/04/19 12:39:59;;;;;;;6.07;2.45;;;18.60;47.80;;;;;;6097741;23;20756;-87
2022/04/19 12:42:26;;;;;;;4.00;2.47;;;18.80;47.30;;;;;;6073868;23;20010;-88
2022/04/19 12:45:03;;;;;;;4.45;2.47;;;18.70;46.70;;;;;;6080471;23;20013;-87
2022/04/19 12:47:28;;;;;;;4.55;2.50;;;18.60;47.70;;;;;;6102216;23;20026;-87
2022/04/19 12:49:55;;;;;;;4.55;2.50;;;18.50;47.80;;;;;;6124289;23;20072;-85
2022/04/19 12:52:33;;;;;;;4.93;2.20;;;18.50;47.40;;;;;;6076487;23;20024;-88
2022/04/19 12:55:00;;;;;;;5.25;2.25;;;18.50;47.40;;;;;;6124696;23;20025;-88
2022/04/19 12:57:29;;;;;;;3.72;2.30;;;18.40;47.70;;;;;;6100357;23;20025;-87
2022/04/19 12:59:57;;;;;;;4.53;2.60;;;18.30;47.30;;;;;;6052336;23;20009;-89
2022/04/19 13:02:24;;;;;;;3.75;2.15;;;;;;;;;;6076375;23;20680;-88
2022/04/19 13:04:50;;;;;;;6.05;3.00;;;18.30;46.70;;;;;;6100827;23;20041;-88
2022/04/19 13:12:53;;;;;;;10.57;2.90;;;19.20;47.20;;;;;;6122891;23;20049;-88
2022/04/19 13:15:18;;;;;;;12.23;2.70;;;19.20;46.80;;;;;;6054217;23;20441;-88
2022/04/19 13:17:45;;;;;;;4.13;2.50;;;;;;;;;;6124753;23;20018;-89
2022/04/19 13:20:12;;;;;;;4.25;2.50;;;;;;;;;;6102963;23;20481;-87
2022/04/19 13:22:39;;;;;;;5.25;2.97;;;;;;;;;;6075417;23;20014;-88
2022/04/19 13:25:07;;;;;;;4.85;2.75;;;;;;;;;;6100313;23;20049;-89
2022/04/19 13:27:39;;;;;;;4.07;2.72;;;;;;;;;;6107993;23;20354;-90
2022/04/19 13:30:13;;;;;;;4.78;2.30;;;19.40;47.70;;;;;;6094957;23;20022;-88
2022/04/19 13:32:39;;;;;;;5.32;2.40;;;20.30;47.20;;;;;;6122151;23;20018;-88
2022/04/19 13:35:09;;;;;;;3.55;2.17;;;20.60;47.40;;;;;;6121412;23;20366;-86
2022/04/19 13:40:26;;;;;;;3.85;3.03;;;;;;;;;;6121927;23;20017;-90
2022/04/19 13:42:53;;;;;;;2.50;2.15;;;21.60;44.40;;;;;;6098706;23;20072;-88
2022/04/19 13:45:19;;;;;;;3.90;2.10;;;22.40;43.80;;;;;;6123159;23;20079;-89
2022/04/19 13:47:45;;;;;;;8.57;2.53;;;22.20;42.40;;;;;;6100105;23;20017;-89
2022/04/19 13:50:11;;;;;;;5.15;3.20;;;21.60;41.90;;;;;;6124336;23;20020;-87
2022/04/19 13:52:37;;;;;;;4.25;2.40;;;21.40;42.00;;;;;;6127654;23;20089;-87
2022/04/19 13:55:03;;;;;;;2.50;2.10;;;21.50;42.50;;;;;;6123963;23;20014;-89
2022/04/19 13:57:29;;;;;;;5.47;2.10;;;21.90;42.40;;;;;;6123187;23;20229;-87
2022/04/19 13:59:55;;;;;;;4.25;2.20;;;;;;;;;;6121899;23;20017;-88
2022/04/19 14:02:21;;;;;;;3.58;2.15;;;;;;;;;;6122944;23;20016;-88
2022/04/19 14:04:47;;;;;;;2.95;2.15;;;;;;;;;;6121851;23;20022;-87
2022/04/19 14:07:14;;;;;;;5.40;3.38;;;;;;;;;;6125028;23;20242;-87
2022/04/19 14:09:45;;;;;;;4.68;2.58;;;;;;;;;;6126067;23;20100;-87
2022/04/19 14:12:11;;;;;;;6.35;2.92;;;22.30;42.30;;;;;;6099999;23;20678;-87
2022/04/19 14:14:41;;;;;;;5.57;2.80;;;;;;;;;;6125445;23;20257;-89
2022/04/19 14:17:07;;;;;;;5.05;3.00;;;;;;;;;;6106248;23;20044;-89
2022/04/19 14:19:36;;;;;;;4.35;3.42;;;;;;;;;;6125923;23;20053;-89
2022/04/19 14:22:02;;;;;;;4.60;3.83;;;;;;;;;;6128647;23;20013;-88
2022/04/19 14:24:29;;;;;;;8.93;3.33;;;;;;;;;;6109039;23;20088;-89
2022/04/19 14:26:58;;;;;;;4.88;3.60;;;;;;;;;;6106371;23;20021;-89
2022/04/19 14:34:56;;;;;;;4.57;3.45;;;23.10;39.10;;;;;;6078577;23;20085;-90
2022/04/19 14:37:22;;;;;;;9.88;3.10;;;;;;;;;;6071774;23;20324;-89
2022/04/19 14:39:48;;;;;;;4.53;3.47;;;;;;;;;;6096971;23;20093;-90
2022/04/19 14:42:16;;;;;;;5.55;3.25;;;22.50;39.50;;;;;;6099431;23;20017;-90
2022/04/19 14:44:43;;;;;;;4.40;3.45;;;;;;;;;;6051684;23;20656;-88
2022/04/19 14:47:10;;;;;;;6.90;3.00;;;;;;;;;;6098474;23;20068;-88
2022/04/19 14:49:37;;;;;;;4.47;3.38;;;;;;;;;;6097245;23;20475;-91
2022/04/19 14:52:15;;;;;;;6.78;3.30;;;;;;;;;;6097500;23;20073;-87
2022/04/19 14:54:41;;;;;;;7.45;3.53;;;;;;;;;;6100956;23;20079;-91
2022/04/19 14:57:08;;;;;;;5.65;3.30;;;;;;;;;;6099362;23;20022;-88
2022/04/19 14:59:36;;;;;;;4.03;3.05;;;24.20;39.30;;;;;;6097779;23;20013;-88
2022/04/19 15:02:11;;;;;;;6.82;2.83;;;26.50;36.50;;;;;;6052766;23;20045;-88
2022/04/19 15:05:07;;;;;;;;;;;;;;;;;;;;;
2022/04/19 15:08:20;;;;;;;;;;;;;;;;;;;;;
2022/04/19 15:29:24;;;;;;;6.40;4.63;;;;;;;;;;6168765;23;20025;-85
2022/04/19 15:35:59;;;;;;;6.18;3.65;;;;;;;;;;6148958;23;20572;-87
2022/04/19 15:39:15;;;;;;;5.80;3.90;;;;;;;;;;6125565;23;20024;-87
2022/04/19 15:46:16;;;;;;;5.07;3.80;;;;;;;;;;6149086;23;20020;-88
2022/04/19 15:50:15;;;;;;;;;;;;;;;;;;;;;
2022/04/19 15:54:12;;;;;;;;;;;;;;;;;;;;;
2022/04/19 16:12:25;;;;;;;5.72;4.38;;;24.10;38.10;;;;;;5874013;24;20774;-88